createdAt,value
2022-10-05T00:00:01.244Z,17.10
2022-10-05T00:02:47.461Z,17.80
2022-10-05T00:05:08.949Z,17.40
2022-10-05T00:07:52.281Z,16.50
2022-10-05T00:10:26.202Z,17.30
2022-10-05T00:12:31.526Z,16.20
2022-10-05T00:14:41.069Z,16.30
2022-10-05T00:17:19.558Z,16.50
2022-10-05T00:19:30.666Z,16.60
2022-10-05T00:21:38.930Z,17.20
2022-10-05T00:23:47.686Z,16.60
2022-10-05T00:25:53.335Z,15.70
2022-10-05T00:28:29.810Z,15.60
2022-10-05T00:31:12.091Z,15.50
2022-10-05T00:33:48.479Z,17.10
2022-10-05T00:35:56.807Z,15.40
2022-10-05T00:38:11.377Z,16.50
2022-10-05T00:41:01.216Z,17.40
2022-10-05T00:43:55.362Z,15.60
2022-10-05T00:50:28.776Z,15.50
2022-10-05T00:52:59.368Z,15.80
2022-10-05T00:55:59.261Z,15.40
2022-10-05T00:58:17.116Z,15.30
2022-10-05T01:00:40.761Z,14.50
2022-10-05T01:03:18.168Z,16.20
2022-10-05T01:06:21.341Z,15.40
2022-10-05T01:09:03.252Z,14.50
2022-10-05T01:11:33.453Z,13.10
2022-10-05T01:13:59.702Z,15.90
2022-10-05T01:16:25.761Z,14.00
2022-10-05T01:18:56.243Z,12.70
2022-10-05T01:21:22.977Z,13.70
2022-10-05T01:23:58.582Z,13.10
2022-10-05T01:26:33.077Z,13.50
2022-10-05T01:29:22.613Z,12.90
2022-10-05T01:31:34.770Z,13.40
2022-10-05T01:34:11.431Z,12.90
2022-10-05T01:36:36.721Z,12.90
2022-10-05T01:39:11.427Z,14.50
2022-10-05T01:41:39.316Z,13.40
2022-10-05T01:44:31.233Z,12.90
2022-10-05T01:47:32.700Z,11.50
2022-10-05T01:49:53.634Z,12.90
2022-10-05T01:52:08.093Z,14.10
2022-10-05T01:54:45.857Z,13.50
2022-10-05T01:57:35.101Z,14.00
2022-10-05T02:00:03.840Z,14.00
2022-10-05T02:02:22.431Z,13.20
2022-10-05T02:05:07.742Z,13.10
2022-10-05T02:07:53.307Z,13.90
2022-10-05T02:10:20.872Z,13.20
2022-10-05T02:12:41.392Z,14.80
2022-10-05T02:14:52.939Z,13.90
2022-10-05T02:17:02.522Z,14.10
2022-10-05T02:19:34.370Z,13.00
2022-10-05T02:21:47.683Z,12.60
2022-10-05T02:24:07.234Z,12.60
2022-10-05T02:26:27.389Z,12.40
2022-10-05T02:28:59.821Z,12.30
2022-10-05T02:32:02.191Z,12.30
2022-10-05T02:35:03.121Z,12.40
2022-10-05T02:38:00.598Z,12.50
2022-10-05T02:40:20.066Z,12.20
2022-10-05T02:42:31.594Z,13.20
2022-10-05T02:44:49.372Z,12.30
2022-10-05T02:47:41.819Z,13.80
2022-10-05T02:50:00.037Z,12.10
2022-10-05T02:52:09.749Z,13.10
2022-10-05T02:54:51.673Z,12.60
2022-10-05T02:59:35.134Z,12.40
2022-10-05T03:01:41.471Z,13.50
2022-10-05T03:04:22.712Z,12.60
2022-10-05T03:06:52.778Z,12.10
2022-10-05T03:09:34.724Z,12.30
2022-10-05T03:12:19.064Z,12.50
2022-10-05T03:14:49.272Z,13.10
2022-10-05T03:17:35.422Z,14.20
2022-10-05T03:20:02.612Z,12.50
2022-10-05T03:22:48.390Z,13.50
2022-10-05T03:25:39.746Z,13.40
2022-10-05T03:28:01.347Z,12.80
2022-10-05T03:30:20.490Z,12.20
2022-10-05T03:32:32.778Z,13.70
2022-10-05T03:34:49.617Z,14.40
2022-10-05T03:37:07.959Z,15.30
2022-10-05T03:39:41.162Z,15.20
2022-10-05T03:42:05.195Z,14.00
2022-10-05T03:44:39.673Z,13.90
2022-10-05T03:47:03.506Z,14.10
2022-10-05T03:49:16.945Z,13.30
2022-10-05T03:51:36.644Z,14.20
2022-10-05T03:53:50.169Z,13.40
2022-10-05T03:56:15.868Z,12.50
2022-10-05T03:58:38.110Z,12.90
2022-10-05T04:01:02.796Z,13.70
2022-10-05T04:03:31.925Z,13.90
2022-10-05T04:05:51.138Z,13.80
2022-10-05T04:08:27.623Z,13.00
2022-10-05T04:10:47.413Z,13.00
2022-10-05T04:13:03.809Z,13.10
2022-10-05T04:15:29.826Z,12.10
2022-10-05T04:17:42.375Z,11.40
2022-10-05T04:20:18.338Z,10.90
2022-10-05T04:22:38.629Z,10.60
2022-10-05T04:25:19.892Z,11.50
2022-10-05T04:27:39.659Z,10.80
2022-10-05T04:30:13.695Z,11.80
2022-10-05T04:33:20.152Z,11.70
2022-10-05T04:39:08.134Z,11.70
2022-10-05T04:41:15.918Z,12.10
2022-10-05T04:43:41.338Z,12.50
2022-10-05T04:46:06.106Z,12.50
2022-10-05T04:48:44.937Z,13.70
2022-10-05T04:51:09.602Z,13.30
2022-10-05T04:53:55.010Z,14.30
2022-10-05T04:56:37.165Z,12.30
2022-10-05T04:59:33.755Z,13.90
2022-10-05T05:01:52.075Z,13.50
2022-10-05T05:04:55.446Z,13.40
2022-10-05T05:07:40.917Z,12.80
2022-10-05T05:10:16.433Z,11.90
2022-10-05T05:12:59.092Z,12.00
2022-10-05T05:15:39.760Z,12.10
2022-10-05T05:18:00.482Z,11.90
2022-10-05T05:20:43.167Z,10.90
2022-10-05T05:23:18.912Z,10.60
2022-10-05T05:25:45.559Z,11.10
2022-10-05T05:28:01.925Z,10.00
2022-10-05T05:30:33.047Z,11.10
2022-10-05T05:33:02.203Z,11.20
2022-10-05T05:35:19.423Z,9.50
2022-10-05T05:37:42.861Z,10.00
2022-10-05T05:39:54.990Z,10.50
2022-10-05T05:42:01.693Z,10.80
2022-10-05T05:44:23.484Z,10.50
2022-10-05T05:47:10.297Z,10.90
2022-10-05T05:49:28.207Z,10.60
2022-10-05T05:52:09.600Z,10.80
2022-10-05T05:54:29.069Z,10.90
2022-10-05T05:56:40.572Z,11.80
2022-10-05T05:58:55.640Z,10.50
2022-10-05T06:01:35.454Z,10.60
2022-10-05T06:04:22.501Z,9.60
2022-10-05T06:06:43.733Z,10.00
2022-10-05T06:09:03.516Z,10.80
2022-10-05T06:11:24.998Z,11.20
2022-10-05T06:13:52.093Z,11.20
2022-10-05T06:16:22.909Z,11.00
2022-10-05T06:18:32.574Z,10.80
2022-10-05T06:21:08.519Z,10.60
2022-10-05T06:23:53.762Z,10.00
2022-10-05T06:26:36.989Z,9.90
2022-10-05T06:28:43.320Z,10.00
2022-10-05T06:31:16.469Z,11.00
2022-10-05T06:33:46.123Z,10.90
2022-10-05T06:36:16.238Z,11.90
2022-10-05T06:38:33.977Z,11.20
2022-10-05T06:40:51.013Z,11.00
2022-10-05T06:43:26.013Z,10.90
2022-10-05T06:46:40.686Z,9.90
2022-10-05T06:49:40.870Z,10.60
2022-10-05T06:52:35.417Z,10.30
2022-10-05T06:54:59.321Z,10.50
2022-10-05T06:57:21.713Z,10.90
2022-10-05T07:00:08.006Z,10.80
2022-10-05T07:02:54.790Z,9.90
2022-10-05T07:05:25.192Z,10.10
2022-10-05T07:07:54.365Z,9.80
2022-10-05T07:10:16.005Z,11.00
2022-10-05T07:12:47.661Z,10.40
2022-10-05T07:15:39.571Z,10.10
2022-10-05T07:18:21.760Z,10.80
2022-10-05T07:20:59.787Z,10.70
2022-10-05T07:23:11.192Z,10.20
2022-10-05T07:25:44.755Z,11.30
2022-10-05T07:28:19.836Z,10.70
2022-10-05T07:30:27.083Z,11.00
2022-10-05T07:32:50.209Z,11.60
2022-10-05T07:35:04.470Z,10.60
2022-10-05T07:37:38.098Z,12.90
2022-10-05T07:40:01.507Z,13.20
2022-10-05T07:42:25.808Z,12.40
2022-10-05T07:44:41.906Z,13.80
2022-10-05T07:47:01.216Z,13.30
2022-10-05T07:49:24.756Z,14.10
2022-10-05T07:51:37.884Z,13.20
2022-10-05T07:54:01.452Z,14.00
2022-10-05T07:56:22.352Z,14.30
2022-10-05T07:58:46.335Z,15.80
2022-10-05T08:01:28.254Z,15.30
2022-10-05T08:03:56.311Z,14.70
2022-10-05T08:06:04.685Z,14.00
2022-10-05T08:08:24.702Z,16.20
2022-10-05T08:11:03.186Z,16.00
2022-10-05T08:13:29.916Z,16.40
2022-10-05T08:15:43.627Z,14.20
2022-10-05T08:18:19.553Z,16.40
2022-10-05T08:20:46.001Z,17.10
2022-10-05T08:22:59.389Z,16.20
2022-10-05T08:25:10.699Z,17.00
2022-10-05T08:27:29.722Z,16.70
2022-10-05T08:29:43.962Z,16.70
2022-10-05T08:31:56.686Z,15.70
2022-10-05T08:34:13.410Z,16.70
2022-10-05T08:36:22.514Z,17.20
2022-10-05T08:38:37.467Z,16.70
2022-10-05T08:41:04.741Z,17.60
2022-10-05T08:43:35.275Z,16.50
2022-10-05T08:45:47.835Z,17.60
2022-10-05T08:48:06.525Z,17.80
2022-10-05T08:50:46.148Z,17.50
2022-10-05T08:53:15.504Z,17.80
2022-10-05T08:55:41.965Z,17.80
2022-10-05T08:58:13.976Z,17.30
2022-10-05T09:00:24.595Z,17.80
2022-10-05T09:03:04.799Z,18.50
2022-10-05T09:05:39.418Z,18.50
2022-10-05T09:08:00.027Z,16.70
2022-10-05T09:10:39.452Z,18.40
2022-10-05T09:13:19.182Z,17.50
2022-10-05T09:16:03.585Z,18.10
2022-10-05T09:18:31.303Z,17.20
2022-10-05T09:20:54.942Z,17.60
2022-10-05T09:23:43.430Z,18.40
2022-10-05T09:25:57.700Z,17.80
2022-10-05T09:28:21.336Z,18.40
2022-10-05T09:30:44.823Z,19.60
2022-10-05T09:33:00.784Z,18.30
2022-10-05T09:35:34.983Z,17.60
2022-10-05T09:38:10.754Z,18.10
2022-10-05T09:40:49.467Z,18.20
2022-10-05T09:43:06.713Z,18.60
2022-10-05T09:45:36.239Z,18.60
2022-10-05T09:48:13.957Z,18.20
2022-10-05T09:50:41.553Z,18.70
2022-10-05T09:53:11.249Z,19.20
2022-10-05T09:55:39.879Z,18.40
2022-10-05T09:57:55.756Z,18.80
2022-10-05T10:00:35.213Z,19.00
2022-10-05T10:03:05.760Z,18.20
2022-10-05T10:05:39.613Z,16.60
2022-10-05T10:08:07.067Z,17.70
2022-10-05T10:10:49.032Z,19.10
2022-10-05T10:13:12.852Z,19.00
2022-10-05T10:15:58.125Z,18.60
2022-10-05T10:18:47.494Z,17.90
2022-10-05T10:21:03.777Z,19.20
2022-10-05T10:23:38.914Z,19.40
2022-10-05T10:25:56.038Z,18.20
2022-10-05T10:28:36.542Z,19.00
2022-10-05T10:31:17.204Z,18.70
2022-10-05T10:33:41.122Z,18.00
2022-10-05T10:36:06.008Z,18.80
2022-10-05T10:38:58.887Z,21.20
2022-10-05T10:41:53.797Z,19.50
2022-10-05T10:44:13.771Z,17.60
2022-10-05T10:47:26.079Z,18.20
2022-10-05T10:50:13.313Z,20.00
2022-10-05T10:52:43.117Z,18.50
2022-10-05T10:55:11.522Z,18.20
2022-10-05T10:57:42.245Z,19.40
2022-10-05T11:00:03.193Z,18.90
2022-10-05T11:02:37.639Z,18.70
2022-10-05T11:04:58.143Z,19.20
2022-10-05T11:07:31.042Z,19.10
2022-10-05T11:10:03.899Z,18.70
2022-10-05T11:12:18.181Z,20.00
2022-10-05T11:15:14.677Z,19.50
2022-10-05T11:17:53.761Z,19.00
2022-10-05T11:20:18.758Z,18.60
2022-10-05T11:22:35.522Z,19.10
2022-10-05T11:25:08.423Z,19.10
2022-10-05T11:27:38.153Z,18.10
2022-10-05T11:30:16.021Z,19.00
2022-10-05T11:32:42.252Z,17.10
2022-10-05T11:35:20.229Z,18.00
2022-10-05T11:37:45.664Z,20.40
2022-10-05T11:40:33.845Z,20.40
2022-10-05T11:42:45.211Z,20.30
2022-10-05T11:45:28.988Z,20.90
2022-10-05T11:48:00.980Z,20.00
2022-10-05T11:50:27.231Z,23.40
2022-10-05T11:52:57.796Z,20.80
2022-10-05T11:55:28.593Z,21.80
2022-10-05T11:57:59.625Z,22.10
2022-10-05T12:00:13.728Z,22.10
2022-10-05T12:02:42.937Z,23.20
2022-10-05T12:05:07.196Z,22.20
2022-10-05T12:07:41.029Z,23.00
2022-10-05T12:10:17.559Z,22.00
2022-10-05T12:12:30.361Z,22.80
2022-10-05T12:14:38.336Z,23.30
2022-10-05T12:16:52.587Z,24.30
2022-10-05T12:19:17.209Z,25.00
2022-10-05T12:21:43.134Z,21.70
2022-10-05T12:24:17.132Z,22.30
2022-10-05T12:26:37.463Z,22.10
2022-10-05T12:29:02.511Z,22.20
2022-10-05T12:31:15.317Z,21.40
2022-10-05T12:33:29.973Z,22.80
2022-10-05T12:35:53.976Z,23.90
2022-10-05T12:38:08.164Z,24.60
2022-10-05T12:40:16.110Z,24.60
2022-10-05T12:42:44.426Z,23.90
2022-10-05T12:45:03.053Z,23.40
2022-10-05T12:47:47.528Z,23.70
2022-10-05T12:50:28.915Z,23.00
2022-10-05T12:53:05.570Z,25.20
2022-10-05T12:55:26.429Z,24.90
2022-10-05T12:57:45.721Z,23.20
2022-10-05T13:00:10.721Z,23.90
2022-10-05T13:02:32.072Z,26.60
2022-10-05T13:04:42.829Z,26.30
2022-10-05T13:07:26.563Z,27.20
2022-10-05T13:09:41.733Z,26.40
2022-10-05T13:11:56.469Z,26.10
2022-10-05T13:14:16.854Z,27.10
2022-10-05T13:17:00.039Z,25.30
2022-10-05T13:19:30.701Z,24.50
2022-10-05T13:21:55.426Z,25.60
2022-10-05T13:24:25.308Z,25.50
2022-10-05T13:27:01.393Z,27.90
2022-10-05T13:29:15.354Z,27.90
2022-10-05T13:31:25.490Z,27.80
2022-10-05T13:34:02.052Z,29.90
2022-10-05T13:36:40.159Z,28.20
2022-10-05T13:39:32.120Z,26.40
2022-10-05T13:41:57.573Z,25.70
2022-10-05T13:44:33.148Z,25.40
2022-10-05T13:46:50.868Z,26.10
2022-10-05T13:49:02.740Z,23.90
2022-10-05T13:51:18.604Z,23.20
2022-10-05T13:53:38.137Z,24.50
2022-10-05T13:56:00.524Z,21.60
2022-10-05T13:58:28.219Z,23.40
2022-10-05T14:00:42.278Z,22.50
2022-10-05T14:02:52.150Z,22.20
2022-10-05T14:05:03.370Z,22.30
2022-10-05T14:07:39.792Z,20.90
2022-10-05T14:10:03.571Z,21.40
2022-10-05T14:12:19.432Z,21.50
2022-10-05T14:14:25.700Z,20.50
2022-10-05T14:16:36.565Z,21.40
2022-10-05T14:19:37.383Z,22.00
2022-10-05T14:22:25.567Z,20.00
2022-10-05T14:24:49.955Z,20.70
2022-10-05T14:27:33.346Z,20.50
2022-10-05T14:30:02.551Z,19.70
2022-10-05T14:32:18.980Z,18.70
2022-10-05T14:34:36.398Z,19.80
2022-10-05T14:36:44.894Z,19.70
2022-10-05T14:39:14.577Z,18.50
2022-10-05T14:42:00.628Z,19.70
2022-10-05T14:44:15.107Z,18.30
2022-10-05T14:47:12.405Z,19.30
2022-10-05T14:50:08.904Z,18.90
2022-10-05T14:52:32.953Z,19.30
2022-10-05T14:54:50.339Z,19.10
2022-10-05T14:57:39.877Z,19.40
2022-10-05T15:00:04.301Z,19.50
2022-10-05T15:02:53.224Z,19.80
2022-10-05T15:05:18.551Z,19.00
2022-10-05T15:07:40.609Z,19.90
2022-10-05T15:12:32.422Z,21.00
2022-10-05T15:14:50.822Z,18.50
2022-10-05T15:17:35.105Z,18.90
2022-10-05T15:19:46.730Z,20.10
2022-10-05T15:21:57.468Z,20.00
2022-10-05T15:24:12.682Z,18.30
2022-10-05T15:27:04.999Z,17.80
2022-10-05T15:29:26.472Z,16.90
2022-10-05T15:32:08.150Z,17.10
2022-10-05T15:34:39.949Z,16.70
2022-10-05T15:37:16.702Z,17.50
2022-10-05T15:39:35.675Z,19.50
2022-10-05T15:42:04.242Z,19.10
2022-10-05T15:44:32.856Z,18.00
2022-10-05T15:47:40.633Z,17.50
2022-10-05T15:50:02.900Z,16.80
2022-10-05T15:52:19.377Z,17.70
2022-10-05T15:55:07.982Z,17.00
2022-10-05T15:57:43.382Z,18.20
2022-10-05T16:00:05.103Z,17.90
2022-10-05T16:02:27.169Z,20.50
2022-10-05T16:04:48.647Z,18.40
2022-10-05T16:07:20.404Z,18.30
2022-10-05T16:09:55.498Z,19.70
2022-10-05T16:12:32.047Z,17.50
2022-10-05T16:14:59.406Z,17.80
2022-10-05T16:17:48.362Z,18.40
2022-10-05T16:20:24.081Z,16.10
2022-10-05T16:22:43.082Z,17.80
2022-10-05T16:25:18.694Z,17.60
2022-10-05T16:27:59.522Z,16.50
2022-10-05T16:30:13.381Z,17.20
2022-10-05T16:35:17.927Z,15.90
2022-10-05T16:37:59.629Z,15.90
2022-10-05T16:40:32.210Z,16.80
2022-10-05T16:42:48.547Z,15.70
2022-10-05T16:45:10.522Z,16.80
2022-10-05T16:50:19.498Z,16.50
2022-10-05T16:52:28.305Z,15.50
2022-10-05T16:54:50.939Z,17.30
2022-10-05T16:57:17.673Z,16.50
2022-10-05T17:00:01.638Z,15.30
2022-10-05T17:03:14.575Z,15.90
2022-10-05T17:05:56.166Z,14.80
2022-10-05T17:08:46.995Z,16.60
2022-10-05T17:11:16.686Z,15.80
2022-10-05T17:13:43.950Z,15.20
2022-10-05T17:16:42.475Z,14.00
2022-10-05T17:19:59.024Z,13.30
2022-10-05T17:22:51.890Z,12.60
2022-10-05T17:26:10.551Z,12.90
2022-10-05T17:28:41.982Z,11.80
2022-10-05T17:31:20.008Z,12.10
2022-10-05T17:33:33.614Z,12.00
2022-10-05T17:35:52.612Z,12.20
2022-10-05T17:38:17.618Z,10.50
2022-10-05T17:41:06.738Z,11.00
2022-10-05T17:43:31.102Z,10.70
2022-10-05T17:45:55.053Z,10.60
2022-10-05T17:48:05.759Z,10.60
2022-10-05T17:50:31.704Z,10.30
2022-10-05T17:53:02.048Z,9.50
2022-10-05T17:55:27.951Z,9.90
2022-10-05T17:57:34.387Z,9.10
2022-10-05T17:59:57.874Z,9.60
2022-10-05T18:02:22.703Z,9.50
2022-10-05T18:04:38.511Z,9.20
2022-10-05T18:07:01.028Z,9.50
2022-10-05T18:09:31.269Z,9.00
2022-10-05T18:11:45.335Z,9.50
2022-10-05T18:14:19.856Z,7.60
2022-10-05T18:17:16.951Z,7.80
2022-10-05T18:19:55.304Z,8.80
2022-10-05T18:22:03.729Z,9.30
2022-10-05T18:24:37.966Z,8.10
2022-10-05T18:27:08.375Z,7.50
2022-10-05T18:30:06.048Z,7.50
2022-10-05T18:32:55.399Z,7.20
2022-10-05T18:35:32.883Z,7.10
2022-10-05T18:38:19.829Z,6.50
2022-10-05T18:41:00.917Z,6.00
2022-10-05T18:43:41.308Z,7.00
2022-10-05T18:46:02.377Z,6.80
2022-10-05T18:51:21.428Z,6.70
2022-10-05T18:54:21.988Z,6.50
2022-10-05T18:56:48.345Z,6.40
2022-10-05T18:59:24.761Z,6.00
2022-10-05T19:02:27.906Z,5.80
2022-10-05T19:05:45.846Z,6.60
2022-10-05T19:08:22.181Z,6.90
2022-10-05T19:11:01.290Z,6.70
2022-10-05T19:13:29.214Z,5.80
2022-10-05T19:15:45.848Z,6.40
2022-10-05T19:18:32.938Z,5.70
2022-10-05T19:20:45.567Z,5.60
2022-10-05T19:23:14.908Z,5.90
2022-10-05T19:25:52.380Z,6.00
2022-10-05T19:28:17.771Z,6.20
2022-10-05T19:30:30.819Z,5.60
2022-10-05T19:33:28.077Z,6.10
2022-10-05T19:36:35.941Z,6.20
2022-10-05T19:39:21.106Z,5.40
2022-10-05T19:42:00.211Z,5.80
2022-10-05T19:44:52.727Z,5.50
2022-10-05T19:47:05.680Z,5.10
2022-10-05T19:49:38.034Z,5.50
2022-10-05T19:51:58.753Z,6.20
2022-10-05T19:54:26.163Z,5.00
2022-10-05T19:56:46.346Z,6.30
2022-10-05T19:59:01.489Z,6.70
2022-10-05T20:01:11.615Z,7.20
2022-10-05T20:03:33.969Z,6.60
2022-10-05T20:05:42.669Z,6.40
2022-10-05T20:07:51.272Z,6.20
2022-10-05T20:10:29.602Z,7.10
2022-10-05T20:12:57.927Z,6.90
2022-10-05T20:15:27.361Z,6.40
2022-10-05T20:17:50.834Z,5.30
2022-10-05T20:20:14.329Z,5.50
2022-10-05T20:22:35.216Z,4.30
2022-10-05T20:24:51.849Z,4.80
2022-10-05T20:27:08.762Z,6.50
2022-10-05T20:29:14.525Z,5.80
2022-10-05T20:31:20.374Z,6.40
2022-10-05T20:33:29.834Z,6.70
2022-10-05T20:35:35.347Z,5.90
2022-10-05T20:37:40.672Z,5.70
2022-10-05T20:39:47.655Z,4.80
2022-10-05T20:41:53.118Z,5.40
2022-10-05T20:43:58.146Z,5.20
2022-10-05T20:46:03.460Z,5.30
2022-10-05T20:48:08.935Z,5.00
2022-10-05T20:50:14.708Z,5.40
2022-10-05T20:52:19.732Z,5.20
2022-10-05T20:54:26.302Z,5.10
2022-10-05T20:56:31.636Z,5.90
2022-10-05T20:58:36.787Z,6.40
2022-10-05T21:01:00.483Z,6.70
2022-10-05T21:03:05.985Z,6.30
2022-10-05T21:05:11.065Z,6.10
2022-10-05T21:07:22.082Z,5.10
2022-10-05T21:09:27.512Z,5.60
2022-10-05T21:11:32.615Z,6.00
2022-10-05T21:13:42.808Z,5.10
2022-10-05T21:15:54.291Z,5.70
2022-10-05T21:17:59.459Z,5.00
2022-10-05T21:20:13.700Z,5.50
2022-10-05T21:22:51.883Z,5.70
2022-10-05T21:24:56.850Z,5.80
2022-10-05T21:27:02.367Z,5.90
2022-10-05T21:29:17.960Z,5.50
2022-10-05T21:31:43.508Z,5.60
2022-10-05T21:33:48.894Z,6.40
2022-10-05T21:35:54.073Z,5.90
2022-10-05T21:37:59.340Z,6.60
2022-10-05T21:40:04.694Z,6.70
2022-10-05T21:42:10.045Z,7.40
2022-10-05T21:44:15.566Z,7.70
2022-10-05T21:46:44.264Z,6.80
2022-10-05T21:48:55.527Z,6.80
2022-10-05T21:51:17.049Z,6.80
2022-10-05T21:53:38.677Z,6.60
2022-10-05T21:55:58.582Z,6.90
2022-10-05T21:58:06.163Z,6.40
2022-10-05T22:00:29.504Z,6.10
2022-10-05T22:02:38.219Z,6.40
2022-10-05T22:05:26.444Z,6.40
2022-10-05T22:07:46.946Z,6.70
2022-10-05T22:10:21.820Z,6.70
2022-10-05T22:12:29.435Z,6.10
2022-10-05T22:15:16.498Z,5.90
2022-10-05T22:18:06.246Z,6.40
2022-10-05T22:20:56.365Z,4.40
2022-10-05T22:23:06.738Z,6.50
2022-10-05T22:25:12.258Z,5.70
2022-10-05T22:27:25.423Z,7.00
2022-10-05T22:29:51.616Z,6.20
2022-10-05T22:32:22.347Z,7.20
2022-10-05T22:34:27.583Z,7.20
2022-10-05T22:36:48.516Z,6.90
2022-10-05T22:39:01.038Z,6.90
2022-10-05T22:41:32.054Z,6.90
2022-10-05T22:43:41.095Z,6.50
2022-10-05T22:46:33.817Z,7.00
2022-10-05T22:49:14.829Z,6.40
2022-10-05T22:51:29.637Z,6.10
2022-10-05T22:53:35.067Z,5.90
2022-10-05T22:56:00.199Z,6.90
2022-10-05T22:58:24.085Z,6.80
2022-10-05T23:01:19.763Z,6.10
2022-10-05T23:04:04.900Z,6.70
2022-10-05T23:06:32.233Z,6.40
2022-10-05T23:08:57.629Z,6.20
2022-10-05T23:11:06.048Z,7.20
2022-10-05T23:13:31.773Z,6.00
2022-10-05T23:15:56.483Z,6.90
2022-10-05T23:18:02.395Z,7.20
2022-10-05T23:20:08.973Z,6.20
2022-10-05T23:22:25.691Z,6.40
2022-10-05T23:24:30.824Z,6.40
2022-10-05T23:26:35.967Z,6.20
2022-10-05T23:28:54.139Z,5.80
2022-10-05T23:31:07.158Z,6.40
2022-10-05T23:33:12.419Z,6.90
2022-10-05T23:35:26.462Z,6.80
2022-10-05T23:37:45.370Z,6.00
2022-10-05T23:40:02.056Z,6.70
2022-10-05T23:42:07.166Z,6.60
2022-10-05T23:44:15.687Z,6.50
2022-10-05T23:46:21.466Z,6.90
2022-10-05T23:48:27.619Z,6.30
2022-10-05T23:50:34.630Z,6.80
2022-10-05T23:52:49.209Z,7.20
2022-10-05T23:56:04.844Z,7.00
2022-10-05T23:58:59.543Z,7.30
